To NAV CANADA Home Page Login to a new session Search on AWWS site Disclaimer Vers la page française équivalente Tips FAQ What's new on the site To the Forecasts and Observations / NOTAM section To "File a Flight Plan" website Publications and other links Update of the User's profile FIC Telephone Numbers My Weather Data Folder Route Weather Data Regional Weather Data Local Weather Data To the Forecasts and Observations / NOTAM section
Request Generated 04/24/2019 at 16:00:16 UTC . Weather information available at that time is displayed.

METAR/TAF

CHETWYND/BC    

METAR CYCQ 241500Z 24017G26KT 35SM FEW055 FEW110 FEW120 SCT220 03/M10 A3003 RMK SC1AC1AC1CI2 SC TR ACSL E-S SLP195=
METAR CYCQ 241400Z 23017G22KT 35SM FEW050 FEW090 SCT110 BKN200 03/M10 A3002 RMK SC1AC1AC2CI2 AC TR LCL FU SE ACSL W-NW SLP190=
METAR CYCQ 241300Z 23009G18KT 35SM FEW050 FEW090 02/M10 A3000 RMK SC1AC1 SC TR SLP182=

CYCQ - No TAF is issued for this station

Your time UTC time
Weather data provided by Environment Canada and NAV CANADA